Česky Dansk Deutsch English Español Suomi Français Magyar Italiano Nederlands norsk Polski Português svenska Türkçe

 

Weather

Istanbul / Sabiha Gokcen (Turkey)

22:50, 13 August 2016 (GMT)

NWNNE
WE
SWSSE
Home            
Istanbul / Sabiha Gokcen Istanbul / Ataturk Topel Tur-Afb Bursa / Yenisehir, Mil-Civ Bursa Corlu Bandirma Eskisehir Balikesir Zonguldak Burgas Sivrihisar Usak Akhisar Canakkale Afyon Varna Alexandroupoli Airport Murted Tur-Afb Ankara / Etimesgut Mytilini Airport Ankara / Guvercin Lik Ankara / Esenboga

To put a weather button on your web site or blog, copy the code below and paste it into your page . The first box contains HTML code, the second UBB code.


Add to Google

Details

Wind speed:4 bf, 12 kn, 6.2 m/s, 13.8 miles/h, 22.2 km/h
Wind direction:NNE, 030°
Visibility:Greater than 10000 m, 10 km, 32800 ft, 6.2 miles
Clouds:Scattered clouds at 3500 ft, 1067 m
Broken clouds at 9000 ft, 2743 m
Temperature:20°C, 68°F
Dew-point:12°C, 54°F
Atmospheric pressure:1020 hPa, 765.1 mmHg, 30.12 inHg, 1.007 atm
Relative humidity:60.0 %
METAR:LTFJ 132250Z 03012KT 9999 SCT035 BKN090 20/12 Q1020 NOSIG

Shortcuts

An up-to-date overview of weather conditions all over the world. Add locations with the plus (+) sign. These shortcuts can be added to Google.

Lid van de Technetium groep

website free tracking
StatCounter NetStat W3C Validator

02-10-2022 08:28:16
astro.technetium.be money.technetium.be phote.technetium.be tafeltennistafel.technetium.be www.ligfiets.net